sensor_id;sensor_type;location;lat;lon;timestamp;P1;P2;P0
46681;PMS5003;34101;53.430;-2.224;2023-05-10T00:00:01;11;10;
46681;PMS5003;34101;53.430;-2.224;2023-05-10T00:02:28;10;7;
46681;PMS5003;34101;53.430;-2.224;2023-05-10T00:04:56;10;9;
46681;PMS5003;34101;53.430;-2.224;2023-05-10T00:07:23;14;10;
46681;PMS5003;34101;53.430;-2.224;2023-05-10T00:09:51;8;8;
46681;PMS5003;34101;53.430;-2.224;2023-05-10T00:12:18;14;10;
46681;PMS5003;34101;53.430;-2.224;2023-05-10T00:14:45;11;9;
46681;PMS5003;34101;53.430;-2.224;2023-05-10T00:17:13;9;8;
46681;PMS5003;34101;53.430;-2.224;2023-05-10T00:19:41;9;7;
46681;PMS5003;34101;53.430;-2.224;2023-05-10T00:22:09;9;8;
46681;PMS5003;34101;53.430;-2.224;2023-05-10T00:24:36;12;11;
46681;PMS5003;34101;53.430;-2.224;2023-05-10T00:27:03;8;8;
46681;PMS5003;34101;53.430;-2.224;2023-05-10T00:29:30;11;10;
46681;PMS5003;34101;53.430;-2.224;2023-05-10T00:31:58;9;8;
46681;PMS5003;34101;53.430;-2.224;2023-05-10T00:34:25;11;9;
46681;PMS5003;34101;53.430;-2.224;2023-05-10T00:36:52;11;9;
46681;PMS5003;34101;53.430;-2.224;2023-05-10T00:39:20;5;5;
46681;PMS5003;34101;53.430;-2.224;2023-05-10T00:41:47;9;8;
46681;PMS5003;34101;53.430;-2.224;2023-05-10T00:44:14;6;6;
46681;PMS5003;34101;53.430;-2.224;2023-05-10T00:46:42;8;6;
46681;PMS5003;34101;53.430;-2.224;2023-05-10T00:49:09;10;8;
46681;PMS5003;34101;53.430;-2.224;2023-05-10T00:51:37;10;10;
46681;PMS5003;34101;53.430;-2.224;2023-05-10T00:54:05;8;8;
46681;PMS5003;34101;53.430;-2.224;2023-05-10T00:56:32;12;9;
46681;PMS5003;34101;53.430;-2.224;2023-05-10T00:59:00;6;6;
46681;PMS5003;34101;53.430;-2.224;2023-05-10T01:01:27;9;8;
46681;PMS5003;34101;53.430;-2.224;2023-05-10T01:03:55;9;9;
46681;PMS5003;34101;53.430;-2.224;2023-05-10T01:06:23;12;9;
46681;PMS5003;34101;53.430;-2.224;2023-05-10T01:08:51;10;7;
46681;PMS5003;34101;53.430;-2.224;2023-05-10T01:11:18;10;8;
46681;PMS5003;34101;53.430;-2.224;2023-05-10T01:13:46;11;8;
46681;PMS5003;34101;53.430;-2.224;2023-05-10T01:16:18;8;6;
46681;PMS5003;34101;53.430;-2.224;2023-05-10T01:18:46;9;9;
46681;PMS5003;34101;53.430;-2.224;2023-05-10T01:21:16;8;8;
46681;PMS5003;34101;53.430;-2.224;2023-05-10T01:24:04;8;8;
46681;PMS5003;34101;53.430;-2.224;2023-05-10T01:26:52;14;11;
46681;PMS5003;34101;53.430;-2.224;2023-05-10T01:29:14;14;11;
46681;PMS5003;34101;53.430;-2.224;2023-05-10T01:32:02;10;7;
46681;PMS5003;34101;53.430;-2.224;2023-05-10T01:34:42;7;7;
46681;PMS5003;34101;53.430;-2.224;2023-05-10T01:37:20;7;6;
46681;PMS5003;34101;53.430;-2.224;2023-05-10T01:39:54;9;9;
46681;PMS5003;34101;53.430;-2.224;2023-05-10T01:42:26;8;7;
46681;PMS5003;34101;53.430;-2.224;2023-05-10T01:45:02;10;10;
46681;PMS5003;34101;53.430;-2.224;2023-05-10T01:47:37;9;9;
46681;PMS5003;34101;53.430;-2.224;2023-05-10T01:50:09;10;9;
46681;PMS5003;34101;53.430;-2.224;2023-05-10T01:52:42;10;9;
46681;PMS5003;34101;53.430;-2.224;2023-05-10T01:55:13;7;7;
46681;PMS5003;34101;53.430;-2.224;2023-05-10T01:57:43;10;8;
46681;PMS5003;34101;53.430;-2.224;2023-05-10T02:00:13;9;9;
46681;PMS5003;34101;53.430;-2.224;2023-05-10T02:02:48;9;9;
46681;PMS5003;34101;53.430;-2.224;2023-05-10T02:05:16;10;9;
46681;PMS5003;34101;53.430;-2.224;2023-05-10T02:07:46;10;8;
46681;PMS5003;34101;53.430;-2.224;2023-05-10T02:10:15;10;6;
46681;PMS5003;34101;53.430;-2.224;2023-05-10T02:12:44;7;7;
46681;PMS5003;34101;53.430;-2.224;2023-05-10T02:15:15;11;8;
46681;PMS5003;34101;53.430;-2.224;2023-05-10T02:17:45;10;8;
46681;PMS5003;34101;53.430;-2.224;2023-05-10T02:20:13;10;10;
46681;PMS5003;34101;53.430;-2.224;2023-05-10T02:22:43;10;8;
46681;PMS5003;34101;53.430;-2.224;2023-05-10T02:25:13;11;10;
46681;PMS5003;34101;53.430;-2.224;2023-05-10T02:27:42;9;9;
46681;PMS5003;34101;53.430;-2.224;2023-05-10T02:30:16;10;10;
46681;PMS5003;34101;53.430;-2.224;2023-05-10T02:32:44;13;9;
46681;PMS5003;34101;53.430;-2.224;2023-05-10T02:35:13;7;7;
46681;PMS5003;34101;53.430;-2.224;2023-05-10T02:37:40;9;7;
46681;PMS5003;34101;53.430;-2.224;2023-05-10T02:40:10;8;7;
46681;PMS5003;34101;53.430;-2.224;2023-05-10T02:42:38;9;8;
46681;PMS5003;34101;53.430;-2.224;2023-05-10T02:45:11;7;7;
46681;PMS5003;34101;53.430;-2.224;2023-05-10T02:47:41;10;7;
46681;PMS5003;34101;53.430;-2.224;2023-05-10T02:50:08;13;11;
46681;PMS5003;34101;53.430;-2.224;2023-05-10T02:52:39;9;8;
46681;PMS5003;34101;53.430;-2.224;2023-05-10T02:55:09;11;10;
46681;PMS5003;34101;53.430;-2.224;2023-05-10T02:57:41;12;9;
46681;PMS5003;34101;53.430;-2.224;2023-05-10T03:00:15;11;8;
46681;PMS5003;34101;53.430;-2.224;2023-05-10T03:02:42;8;8;
46681;PMS5003;34101;53.430;-2.224;2023-05-10T03:05:10;10;9;
46681;PMS5003;34101;53.430;-2.224;2023-05-10T03:07:37;8;8;
46681;PMS5003;34101;53.430;-2.224;2023-05-10T03:10:05;8;6;
46681;PMS5003;34101;53.430;-2.224;2023-05-10T03:12:37;9;8;
46681;PMS5003;34101;53.430;-2.224;2023-05-10T03:15:20;5;5;
46681;PMS5003;34101;53.430;-2.224;2023-05-10T03:17:57;8;8;
46681;PMS5003;34101;53.430;-2.224;2023-05-10T03:20:31;6;6;
46681;PMS5003;34101;53.430;-2.224;2023-05-10T03:23:04;10;7;
46681;PMS5003;34101;53.430;-2.224;2023-05-10T03:25:37;7;7;
46681;PMS5003;34101;53.430;-2.224;2023-05-10T03:28:07;7;7;
46681;PMS5003;34101;53.430;-2.224;2023-05-10T03:30:34;9;9;
46681;PMS5003;34101;53.430;-2.224;2023-05-10T03:33:04;9;7;
46681;PMS5003;34101;53.430;-2.224;2023-05-10T03:35:32;14;8;
46681;PMS5003;34101;53.430;-2.224;2023-05-10T03:37:59;9;7;
46681;PMS5003;34101;53.430;-2.224;2023-05-10T03:40:26;9;9;
46681;PMS5003;34101;53.430;-2.224;2023-05-10T03:42:55;9;6;
46681;PMS5003;34101;53.430;-2.224;2023-05-10T03:45:22;7;6;
46681;PMS5003;34101;53.430;-2.224;2023-05-10T03:47:50;7;7;
46681;PMS5003;34101;53.430;-2.224;2023-05-10T03:50:17;8;8;
46681;PMS5003;34101;53.430;-2.224;2023-05-10T03:52:44;8;8;
46681;PMS5003;34101;53.430;-2.224;2023-05-10T03:55:12;10;9;
46681;PMS5003;34101;53.430;-2.224;2023-05-10T03:57:44;9;7;
46681;PMS5003;34101;53.430;-2.224;2023-05-10T04:00:12;8;8;
46681;PMS5003;34101;53.430;-2.224;2023-05-10T04:02:40;8;6;
46681;PMS5003;34101;53.430;-2.224;2023-05-10T04:05:07;9;8;
46681;PMS5003;34101;53.430;-2.224;2023-05-10T04:07:35;8;6;
46681;PMS5003;34101;53.430;-2.224;2023-05-10T04:10:02;10;8;
46681;PMS5003;34101;53.430;-2.224;2023-05-10T04:12:31;9;7;
46681;PMS5003;34101;53.430;-2.224;2023-05-10T04:14:58;8;8;
46681;PMS5003;34101;53.430;-2.224;2023-05-10T04:17:25;10;9;
46681;PMS5003;34101;53.430;-2.224;2023-05-10T04:19:53;7;7;
46681;PMS5003;34101;53.430;-2.224;2023-05-10T04:22:20;8;8;
46681;PMS5003;34101;53.430;-2.224;2023-05-10T04:24:47;11;8;
46681;PMS5003;34101;53.430;-2.224;2023-05-10T04:27:14;9;8;
46681;PMS5003;34101;53.430;-2.224;2023-05-10T04:29:42;11;8;
46681;PMS5003;34101;53.430;-2.224;2023-05-10T04:32:09;10;9;
46681;PMS5003;34101;53.430;-2.224;2023-05-10T04:34:36;10;8;
46681;PMS5003;34101;53.430;-2.224;2023-05-10T04:37:04;8;8;
46681;PMS5003;34101;53.430;-2.224;2023-05-10T04:39:31;8;8;
46681;PMS5003;34101;53.430;-2.224;2023-05-10T04:42:04;11;9;
46681;PMS5003;34101;53.430;-2.224;2023-05-10T04:44:31;11;11;
46681;PMS5003;34101;53.430;-2.224;2023-05-10T04:46:59;11;8;
46681;PMS5003;34101;53.430;-2.224;2023-05-10T04:49:26;7;7;
46681;PMS5003;34101;53.430;-2.224;2023-05-10T04:51:53;13;9;
46681;PMS5003;34101;53.430;-2.224;2023-05-10T04:54:20;13;10;
46681;PMS5003;34101;53.430;-2.224;2023-05-10T04:56:48;13;9;
46681;PMS5003;34101;53.430;-2.224;2023-05-10T04:59:15;8;6;
46681;PMS5003;34101;53.430;-2.224;2023-05-10T05:01:42;11;10;
46681;PMS5003;34101;53.430;-2.224;2023-05-10T05:04:10;7;7;
46681;PMS5003;34101;53.430;-2.224;2023-05-10T05:06:37;11;7;
46681;PMS5003;34101;53.430;-2.224;2023-05-10T05:09:05;9;9;
46681;PMS5003;34101;53.430;-2.224;2023-05-10T05:11:32;9;7;
46681;PMS5003;34101;53.430;-2.224;2023-05-10T05:14:00;10;10;
46681;PMS5003;34101;53.430;-2.224;2023-05-10T05:16:27;11;9;
46681;PMS5003;34101;53.430;-2.224;2023-05-10T05:19:02;12;11;
46681;PMS5003;34101;53.430;-2.224;2023-05-10T05:21:29;8;8;
46681;PMS5003;34101;53.430;-2.224;2023-05-10T05:23:57;11;11;
46681;PMS5003;34101;53.430;-2.224;2023-05-10T05:26:24;10;9;
46681;PMS5003;34101;53.430;-2.224;2023-05-10T05:28:52;9;8;
46681;PMS5003;34101;53.430;-2.224;2023-05-10T05:31:20;10;10;
46681;PMS5003;34101;53.430;-2.224;2023-05-10T05:33:47;12;11;
46681;PMS5003;34101;53.430;-2.224;2023-05-10T05:36:15;9;9;
46681;PMS5003;34101;53.430;-2.224;2023-05-10T05:38:42;12;9;
46681;PMS5003;34101;53.430;-2.224;2023-05-10T05:41:15;9;9;
46681;PMS5003;34101;53.430;-2.224;2023-05-10T05:43:42;11;9;
46681;PMS5003;34101;53.430;-2.224;2023-05-10T05:46:14;11;11;
46681;PMS5003;34101;53.430;-2.224;2023-05-10T05:48:42;11;10;
46681;PMS5003;34101;53.430;-2.224;2023-05-10T05:51:09;12;11;
46681;PMS5003;34101;53.430;-2.224;2023-05-10T05:53:37;12;10;
46681;PMS5003;34101;53.430;-2.224;2023-05-10T05:56:04;13;11;
46681;PMS5003;34101;53.430;-2.224;2023-05-10T05:58:31;12;10;
46681;PMS5003;34101;53.430;-2.224;2023-05-10T06:00:58;11;7;
46681;PMS5003;34101;53.430;-2.224;2023-05-10T06:03:25;11;10;
46681;PMS5003;34101;53.430;-2.224;2023-05-10T06:05:53;15;12;
46681;PMS5003;34101;53.430;-2.224;2023-05-10T06:08:20;12;10;
46681;PMS5003;34101;53.430;-2.224;2023-05-10T06:10:48;11;10;
46681;PMS5003;34101;53.430;-2.224;2023-05-10T06:13:15;10;9;
46681;PMS5003;34101;53.430;-2.224;2023-05-10T06:15:42;10;8;
46681;PMS5003;34101;53.430;-2.224;2023-05-10T06:18:10;10;9;
46681;PMS5003;34101;53.430;-2.224;2023-05-10T06:20:37;13;10;
46681;PMS5003;34101;53.430;-2.224;2023-05-10T06:23:05;13;13;
46681;PMS5003;34101;53.430;-2.224;2023-05-10T06:25:32;13;9;
46681;PMS5003;34101;53.430;-2.224;2023-05-10T06:28:00;10;9;
46681;PMS5003;34101;53.430;-2.224;2023-05-10T06:30:27;10;8;
46681;PMS5003;34101;53.430;-2.224;2023-05-10T06:32:55;10;10;
46681;PMS5003;34101;53.430;-2.224;2023-05-10T06:35:27;7;6;
46681;PMS5003;34101;53.430;-2.224;2023-05-10T06:37:55;10;8;
46681;PMS5003;34101;53.430;-2.224;2023-05-10T06:40:23;9;9;
46681;PMS5003;34101;53.430;-2.224;2023-05-10T06:42:50;13;11;
46681;PMS5003;34101;53.430;-2.224;2023-05-10T06:45:18;10;10;
46681;PMS5003;34101;53.430;-2.224;2023-05-10T06:47:46;9;7;
46681;PMS5003;34101;53.430;-2.224;2023-05-10T06:50:13;13;12;
46681;PMS5003;34101;53.430;-2.224;2023-05-10T06:52:40;10;10;
46681;PMS5003;34101;53.430;-2.224;2023-05-10T06:55:08;10;9;
46681;PMS5003;34101;53.430;-2.224;2023-05-10T06:57:36;9;8;
46681;PMS5003;34101;53.430;-2.224;2023-05-10T07:00:04;11;10;
46681;PMS5003;34101;53.430;-2.224;2023-05-10T07:02:32;13;10;
46681;PMS5003;34101;53.430;-2.224;2023-05-10T07:04:59;9;9;
46681;PMS5003;34101;53.430;-2.224;2023-05-10T07:07:27;11;9;
46681;PMS5003;34101;53.430;-2.224;2023-05-10T07:09:54;10;10;
46681;PMS5003;34101;53.430;-2.224;2023-05-10T07:12:22;9;9;
46681;PMS5003;34101;53.430;-2.224;2023-05-10T07:14:49;6;6;
46681;PMS5003;34101;53.430;-2.224;2023-05-10T07:17:21;6;6;
46681;PMS5003;34101;53.430;-2.224;2023-05-10T07:19:49;6;6;
46681;PMS5003;34101;53.430;-2.224;2023-05-10T07:22:17;7;7;
46681;PMS5003;34101;53.430;-2.224;2023-05-10T07:24:44;6;6;
46681;PMS5003;34101;53.430;-2.224;2023-05-10T07:27:11;7;6;
46681;PMS5003;34101;53.430;-2.224;2023-05-10T07:29:39;7;6;
46681;PMS5003;34101;53.430;-2.224;2023-05-10T07:32:06;6;6;
46681;PMS5003;34101;53.430;-2.224;2023-05-10T07:34:34;8;7;
46681;PMS5003;34101;53.430;-2.224;2023-05-10T07:37:01;6;5;
46681;PMS5003;34101;53.430;-2.224;2023-05-10T07:39:28;8;7;
46681;PMS5003;34101;53.430;-2.224;2023-05-10T07:41:56;4;4;
46681;PMS5003;34101;53.430;-2.224;2023-05-10T07:44:24;4;3;
46681;PMS5003;34101;53.430;-2.224;2023-05-10T07:46:51;7;6;
46681;PMS5003;34101;53.430;-2.224;2023-05-10T07:49:18;6;5;
46681;PMS5003;34101;53.430;-2.224;2023-05-10T07:51:46;5;4;
46681;PMS5003;34101;53.430;-2.224;2023-05-10T07:54:13;4;4;
46681;PMS5003;34101;53.430;-2.224;2023-05-10T07:56:41;6;5;
46681;PMS5003;34101;53.430;-2.224;2023-05-10T07:59:08;6;6;
46681;PMS5003;34101;53.430;-2.224;2023-05-10T08:01:35;9;5;
46681;PMS5003;34101;53.430;-2.224;2023-05-10T08:04:03;6;4;
46681;PMS5003;34101;53.430;-2.224;2023-05-10T08:06:30;3;3;
46681;PMS5003;34101;53.430;-2.224;2023-05-10T08:08:58;5;5;
46681;PMS5003;34101;53.430;-2.224;2023-05-10T08:11:25;4;4;
46681;PMS5003;34101;53.430;-2.224;2023-05-10T08:13:53;6;5;
46681;PMS5003;34101;53.430;-2.224;2023-05-10T08:16:20;7;3;
46681;PMS5003;34101;53.430;-2.224;2023-05-10T08:18:47;5;5;
46681;PMS5003;34101;53.430;-2.224;2023-05-10T08:21:15;5;5;
46681;PMS5003;34101;53.430;-2.224;2023-05-10T08:23:42;4;4;
46681;PMS5003;34101;53.430;-2.224;2023-05-10T08:26:10;4;4;
46681;PMS5003;34101;53.430;-2.224;2023-05-10T08:28:37;6;5;
46681;PMS5003;34101;53.430;-2.224;2023-05-10T08:31:05;4;4;
46681;PMS5003;34101;53.430;-2.224;2023-05-10T08:33:32;7;5;
46681;PMS5003;34101;53.430;-2.224;2023-05-10T08:36:00;6;5;
46681;PMS5003;34101;53.430;-2.224;2023-05-10T08:38:27;7;7;
46681;PMS5003;34101;53.430;-2.224;2023-05-10T08:40:54;5;5;
46681;PMS5003;34101;53.430;-2.224;2023-05-10T08:43:22;5;5;
46681;PMS5003;34101;53.430;-2.224;2023-05-10T08:45:53;7;7;
46681;PMS5003;34101;53.430;-2.224;2023-05-10T08:48:23;10;9;
46681;PMS5003;34101;53.430;-2.224;2023-05-10T08:50:52;9;8;
46681;PMS5003;34101;53.430;-2.224;2023-05-10T08:53:20;8;7;
46681;PMS5003;34101;53.430;-2.224;2023-05-10T08:55:50;9;9;
46681;PMS5003;34101;53.430;-2.224;2023-05-10T08:58:19;9;8;
46681;PMS5003;34101;53.430;-2.224;2023-05-10T09:00:48;8;6;
46681;PMS5003;34101;53.430;-2.224;2023-05-10T09:03:16;5;5;
46681;PMS5003;34101;53.430;-2.224;2023-05-10T09:05:44;7;7;
46681;PMS5003;34101;53.430;-2.224;2023-05-10T09:08:11;9;6;
46681;PMS5003;34101;53.430;-2.224;2023-05-10T09:10:40;6;6;
46681;PMS5003;34101;53.430;-2.224;2023-05-10T09:13:09;7;7;
46681;PMS5003;34101;53.430;-2.224;2023-05-10T09:15:37;5;5;
46681;PMS5003;34101;53.430;-2.224;2023-05-10T09:18:04;7;6;
46681;PMS5003;34101;53.430;-2.224;2023-05-10T09:20:32;9;7;
46681;PMS5003;34101;53.430;-2.224;2023-05-10T09:22:59;6;6;
46681;PMS5003;34101;53.430;-2.224;2023-05-10T09:25:27;5;5;
46681;PMS5003;34101;53.430;-2.224;2023-05-10T09:27:54;9;8;
46681;PMS5003;34101;53.430;-2.224;2023-05-10T09:30:25;6;6;
46681;PMS5003;34101;53.430;-2.224;2023-05-10T09:32:59;6;6;
46681;PMS5003;34101;53.430;-2.224;2023-05-10T09:35:27;7;7;
46681;PMS5003;34101;53.430;-2.224;2023-05-10T09:37:57;8;6;
46681;PMS5003;34101;53.430;-2.224;2023-05-10T09:40:26;5;5;
46681;PMS5003;34101;53.430;-2.224;2023-05-10T09:42:55;7;7;
46681;PMS5003;34101;53.430;-2.224;2023-05-10T09:45:24;7;7;
46681;PMS5003;34101;53.430;-2.224;2023-05-10T09:47:53;5;5;
46681;PMS5003;34101;53.430;-2.224;2023-05-10T09:50:22;9;7;
46681;PMS5003;34101;53.430;-2.224;2023-05-10T09:52:50;9;7;
46681;PMS5003;34101;53.430;-2.224;2023-05-10T09:55:20;6;6;
46681;PMS5003;34101;53.430;-2.224;2023-05-10T09:57:48;11;10;
46681;PMS5003;34101;53.430;-2.224;2023-05-10T10:00:24;4;4;
46681;PMS5003;34101;53.430;-2.224;2023-05-10T10:02:54;3;3;
46681;PMS5003;34101;53.430;-2.224;2023-05-10T10:05:28;4;4;
46681;PMS5003;34101;53.430;-2.224;2023-05-10T10:07:55;3;3;
46681;PMS5003;34101;53.430;-2.224;2023-05-10T10:10:24;4;4;
46681;PMS5003;34101;53.430;-2.224;2023-05-10T10:12:53;5;5;
46681;PMS5003;34101;53.430;-2.224;2023-05-10T10:15:21;4;4;
46681;PMS5003;34101;53.430;-2.224;2023-05-10T10:17:49;3;3;
46681;PMS5003;34101;53.430;-2.224;2023-05-10T10:20:18;5;5;
46681;PMS5003;34101;53.430;-2.224;2023-05-10T10:22:47;4;4;
46681;PMS5003;34101;53.430;-2.224;2023-05-10T10:25:16;4;3;
46681;PMS5003;34101;53.430;-2.224;2023-05-10T10:27:47;3;3;
46681;PMS5003;34101;53.430;-2.224;2023-05-10T10:30:25;5;5;
46681;PMS5003;34101;53.430;-2.224;2023-05-10T10:33:01;4;4;
46681;PMS5003;34101;53.430;-2.224;2023-05-10T10:35:55;4;4;
46681;PMS5003;34101;53.430;-2.224;2023-05-10T10:38:35;4;4;
46681;PMS5003;34101;53.430;-2.224;2023-05-10T10:41:07;7;5;
46681;PMS5003;34101;53.430;-2.224;2023-05-10T10:43:36;4;4;
46681;PMS5003;34101;53.430;-2.224;2023-05-10T10:46:12;5;5;
46681;PMS5003;34101;53.430;-2.224;2023-05-10T10:48:40;1;1;
46681;PMS5003;34101;53.430;-2.224;2023-05-10T10:51:07;3;3;
46681;PMS5003;34101;53.430;-2.224;2023-05-10T10:53:34;1;1;
46681;PMS5003;34101;53.430;-2.224;2023-05-10T10:56:05;1;1;
46681;PMS5003;34101;53.430;-2.224;2023-05-10T10:58:34;1;1;
46681;PMS5003;34101;53.430;-2.224;2023-05-10T11:01:10;1;1;
46681;PMS5003;34101;53.430;-2.224;2023-05-10T11:03:40;3;3;
46681;PMS5003;34101;53.430;-2.224;2023-05-10T11:06:08;2;2;
46681;PMS5003;34101;53.430;-2.224;2023-05-10T11:08:41;2;2;
46681;PMS5003;34101;53.430;-2.224;2023-05-10T11:11:09;2;2;
46681;PMS5003;34101;53.430;-2.224;2023-05-10T11:13:41;2;2;
46681;PMS5003;34101;53.430;-2.224;2023-05-10T11:16:11;2;2;
46681;PMS5003;34101;53.430;-2.224;2023-05-10T11:18:40;4;4;
46681;PMS5003;34101;53.430;-2.224;2023-05-10T11:21:08;2;2;
46681;PMS5003;34101;53.430;-2.224;2023-05-10T11:23:49;2;2;
46681;PMS5003;34101;53.430;-2.224;2023-05-10T11:26:18;2;2;
46681;PMS5003;34101;53.430;-2.224;2023-05-10T11:28:46;2;2;
46681;PMS5003;34101;53.430;-2.224;2023-05-10T11:31:15;2;2;
46681;PMS5003;34101;53.430;-2.224;2023-05-10T11:33:43;2;2;
46681;PMS5003;34101;53.430;-2.224;2023-05-10T11:36:12;3;3;
46681;PMS5003;34101;53.430;-2.224;2023-05-10T11:38:42;2;2;
46681;PMS5003;34101;53.430;-2.224;2023-05-10T11:41:10;4;2;
46681;PMS5003;34101;53.430;-2.224;2023-05-10T11:43:38;3;3;
46681;PMS5003;34101;53.430;-2.224;2023-05-10T11:46:06;3;3;
46681;PMS5003;34101;53.430;-2.224;2023-05-10T11:48:34;2;2;
46681;PMS5003;34101;53.430;-2.224;2023-05-10T11:51:02;1;1;
46681;PMS5003;34101;53.430;-2.224;2023-05-10T11:53:30;0;0;
46681;PMS5003;34101;53.430;-2.224;2023-05-10T11:56:02;1;1;
46681;PMS5003;34101;53.430;-2.224;2023-05-10T11:58:30;2;1;
46681;PMS5003;34101;53.430;-2.224;2023-05-10T12:00:57;1;1;
46681;PMS5003;34101;53.430;-2.224;2023-05-10T12:03:25;1;1;
46681;PMS5003;34101;53.430;-2.224;2023-05-10T12:05:52;2;2;
46681;PMS5003;34101;53.430;-2.224;2023-05-10T12:08:21;4;2;
46681;PMS5003;34101;53.430;-2.224;2023-05-10T12:10:50;1;1;
46681;PMS5003;34101;53.430;-2.224;2023-05-10T12:13:19;0;0;
46681;PMS5003;34101;53.430;-2.224;2023-05-10T12:15:47;2;1;
46681;PMS5003;34101;53.430;-2.224;2023-05-10T12:18:14;2;2;
46681;PMS5003;34101;53.430;-2.224;2023-05-10T12:20:49;2;2;
46681;PMS5003;34101;53.430;-2.224;2023-05-10T12:23:19;4;2;
46681;PMS5003;34101;53.430;-2.224;2023-05-10T12:25:47;4;3;
46681;PMS5003;34101;53.430;-2.224;2023-05-10T12:28:14;1;1;
46681;PMS5003;34101;53.430;-2.224;2023-05-10T12:30:45;2;0;
46681;PMS5003;34101;53.430;-2.224;2023-05-10T12:33:13;1;1;
46681;PMS5003;34101;53.430;-2.224;2023-05-10T12:35:44;1;1;
46681;PMS5003;34101;53.430;-2.224;2023-05-10T12:38:28;2;0;
46681;PMS5003;34101;53.430;-2.224;2023-05-10T12:40:59;0;0;
46681;PMS5003;34101;53.430;-2.224;2023-05-10T12:43:28;1;1;
46681;PMS5003;34101;53.430;-2.224;2023-05-10T12:45:55;2;2;
46681;PMS5003;34101;53.430;-2.224;2023-05-10T12:48:22;2;2;
46681;PMS5003;34101;53.430;-2.224;2023-05-10T12:50:50;2;2;
46681;PMS5003;34101;53.430;-2.224;2023-05-10T12:53:17;2;2;
46681;PMS5003;34101;53.430;-2.224;2023-05-10T12:55:44;2;2;
46681;PMS5003;34101;53.430;-2.224;2023-05-10T12:58:12;4;3;
46681;PMS5003;34101;53.430;-2.224;2023-05-10T13:00:39;2;2;
46681;PMS5003;34101;53.430;-2.224;2023-05-10T13:03:06;5;5;
46681;PMS5003;34101;53.430;-2.224;2023-05-10T13:05:39;2;1;
46681;PMS5003;34101;53.430;-2.224;2023-05-10T13:08:06;4;1;
46681;PMS5003;34101;53.430;-2.224;2023-05-10T13:10:34;1;1;
46681;PMS5003;34101;53.430;-2.224;2023-05-10T13:13:01;3;1;
46681;PMS5003;34101;53.430;-2.224;2023-05-10T13:15:29;0;0;
46681;PMS5003;34101;53.430;-2.224;2023-05-10T13:17:56;3;2;
46681;PMS5003;34101;53.430;-2.224;2023-05-10T13:20:24;4;2;
46681;PMS5003;34101;53.430;-2.224;2023-05-10T13:22:51;2;2;
46681;PMS5003;34101;53.430;-2.224;2023-05-10T13:25:19;2;2;
46681;PMS5003;34101;53.430;-2.224;2023-05-10T13:27:47;3;3;
46681;PMS5003;34101;53.430;-2.224;2023-05-10T13:30:14;2;2;
46681;PMS5003;34101;53.430;-2.224;2023-05-10T13:32:42;3;3;
46681;PMS5003;34101;53.430;-2.224;2023-05-10T13:35:09;1;1;
46681;PMS5003;34101;53.430;-2.224;2023-05-10T13:37:36;1;1;
46681;PMS5003;34101;53.430;-2.224;2023-05-10T13:40:04;7;3;
46681;PMS5003;34101;53.430;-2.224;2023-05-10T13:42:32;4;2;
46681;PMS5003;34101;53.430;-2.224;2023-05-10T13:45:00;1;1;
46681;PMS5003;34101;53.430;-2.224;2023-05-10T13:47:27;2;2;
46681;PMS5003;34101;53.430;-2.224;2023-05-10T13:49:59;2;2;
46681;PMS5003;34101;53.430;-2.224;2023-05-10T13:52:27;4;1;
46681;PMS5003;34101;53.430;-2.224;2023-05-10T13:54:54;3;3;
46681;PMS5003;34101;53.430;-2.224;2023-05-10T13:57:22;3;3;
46681;PMS5003;34101;53.430;-2.224;2023-05-10T13:59:49;1;1;
46681;PMS5003;34101;53.430;-2.224;2023-05-10T14:02:17;2;2;
46681;PMS5003;34101;53.430;-2.224;2023-05-10T14:04:45;3;3;
46681;PMS5003;34101;53.430;-2.224;2023-05-10T14:07:12;2;2;
46681;PMS5003;34101;53.430;-2.224;2023-05-10T14:09:40;1;1;
46681;PMS5003;34101;53.430;-2.224;2023-05-10T14:12:07;3;3;
46681;PMS5003;34101;53.430;-2.224;2023-05-10T14:14:34;2;2;
46681;PMS5003;34101;53.430;-2.224;2023-05-10T14:17:02;3;3;
46681;PMS5003;34101;53.430;-2.224;2023-05-10T14:19:29;4;4;
46681;PMS5003;34101;53.430;-2.224;2023-05-10T14:21:57;2;2;
46681;PMS5003;34101;53.430;-2.224;2023-05-10T14:24:24;1;1;
46681;PMS5003;34101;53.430;-2.224;2023-05-10T14:26:52;2;2;
46681;PMS5003;34101;53.430;-2.224;2023-05-10T14:29:19;4;3;
46681;PMS5003;34101;53.430;-2.224;2023-05-10T14:31:46;3;3;
46681;PMS5003;34101;53.430;-2.224;2023-05-10T14:34:14;4;3;
46681;PMS5003;34101;53.430;-2.224;2023-05-10T14:36:41;2;2;
46681;PMS5003;34101;53.430;-2.224;2023-05-10T14:39:09;3;3;
46681;PMS5003;34101;53.430;-2.224;2023-05-10T14:41:36;2;2;
46681;PMS5003;34101;53.430;-2.224;2023-05-10T14:44:04;2;2;
46681;PMS5003;34101;53.430;-2.224;2023-05-10T14:46:31;2;2;
46681;PMS5003;34101;53.430;-2.224;2023-05-10T14:48:58;2;2;
46681;PMS5003;34101;53.430;-2.224;2023-05-10T14:51:26;4;2;
46681;PMS5003;34101;53.430;-2.224;2023-05-10T14:53:53;4;3;
46681;PMS5003;34101;53.430;-2.224;2023-05-10T14:56:21;2;1;
46681;PMS5003;34101;53.430;-2.224;2023-05-10T14:58:49;2;2;
46681;PMS5003;34101;53.430;-2.224;2023-05-10T15:01:15;2;1;
46681;PMS5003;34101;53.430;-2.224;2023-05-10T15:03:43;3;3;
46681;PMS5003;34101;53.430;-2.224;2023-05-10T15:06:10;2;2;
46681;PMS5003;34101;53.430;-2.224;2023-05-10T15:08:40;2;2;
46681;PMS5003;34101;53.430;-2.224;2023-05-10T15:11:08;2;2;
46681;PMS5003;34101;53.430;-2.224;2023-05-10T15:13:35;2;1;
46681;PMS5003;34101;53.430;-2.224;2023-05-10T15:16:03;2;2;
46681;PMS5003;34101;53.430;-2.224;2023-05-10T15:18:30;1;1;
46681;PMS5003;34101;53.430;-2.224;2023-05-10T15:20:57;1;1;
46681;PMS5003;34101;53.430;-2.224;2023-05-10T15:23:25;1;1;
46681;PMS5003;34101;53.430;-2.224;2023-05-10T15:25:52;0;0;
46681;PMS5003;34101;53.430;-2.224;2023-05-10T15:28:20;0;0;
46681;PMS5003;34101;53.430;-2.224;2023-05-10T15:30:47;0;0;
46681;PMS5003;34101;53.430;-2.224;2023-05-10T15:33:14;1;1;
46681;PMS5003;34101;53.430;-2.224;2023-05-10T15:35:42;2;2;
46681;PMS5003;34101;53.430;-2.224;2023-05-10T15:38:09;1;1;
46681;PMS5003;34101;53.430;-2.224;2023-05-10T15:40:37;1;1;
46681;PMS5003;34101;53.430;-2.224;2023-05-10T15:43:04;2;2;
46681;PMS5003;34101;53.430;-2.224;2023-05-10T15:45:32;1;1;
46681;PMS5003;34101;53.430;-2.224;2023-05-10T15:48:05;1;1;
46681;PMS5003;34101;53.430;-2.224;2023-05-10T15:50:32;1;0;
46681;PMS5003;34101;53.430;-2.224;2023-05-10T15:53:00;0;0;
46681;PMS5003;34101;53.430;-2.224;2023-05-10T15:55:27;1;1;
46681;PMS5003;34101;53.430;-2.224;2023-05-10T15:57:54;1;1;
46681;PMS5003;34101;53.430;-2.224;2023-05-10T16:00:22;0;0;
46681;PMS5003;34101;53.430;-2.224;2023-05-10T16:02:51;1;1;
46681;PMS5003;34101;53.430;-2.224;2023-05-10T16:05:18;1;1;
46681;PMS5003;34101;53.430;-2.224;2023-05-10T16:07:46;1;1;
46681;PMS5003;34101;53.430;-2.224;2023-05-10T16:10:13;1;1;
46681;PMS5003;34101;53.430;-2.224;2023-05-10T16:12:40;1;1;
46681;PMS5003;34101;53.430;-2.224;2023-05-10T16:15:08;1;1;
46681;PMS5003;34101;53.430;-2.224;2023-05-10T16:17:36;0;0;
46681;PMS5003;34101;53.430;-2.224;2023-05-10T16:20:04;1;1;
46681;PMS5003;34101;53.430;-2.224;2023-05-10T16:22:32;1;1;
46681;PMS5003;34101;53.430;-2.224;2023-05-10T16:24:59;1;1;
46681;PMS5003;34101;53.430;-2.224;2023-05-10T16:27:27;2;2;
46681;PMS5003;34101;53.430;-2.224;2023-05-10T16:29:54;1;1;
46681;PMS5003;34101;53.430;-2.224;2023-05-10T16:32:21;3;3;
46681;PMS5003;34101;53.430;-2.224;2023-05-10T16:34:49;3;2;
46681;PMS5003;34101;53.430;-2.224;2023-05-10T16:37:16;3;2;